Time;durP1;ratioP1;P1;durP2;ratioP2;P2;SDS_P1;SDS_P2;PMS_P1;PMS_P2;Temp;Humidity;BMP_temperature;BMP_pressure;BME280_temperature;BME280_humidity;BME280_pressure;Samples;Min_cycle;Max_cycle;Signal;HPM_P1;HPM_P2
2022/10/17 04:02:36;;;;;;;8.00;6.40;;;;;;;;;;4974951;23;20497;-75
2022/10/17 04:05:02;;;;;;;2.93;2.53;;;13.50;96.30;;;;;;4976924;28;20409;-75
2022/10/17 04:07:27;;;;;;;5.93;3.50;;;13.40;96.30;;;;;;4974960;28;21063;-76
2022/10/17 04:09:53;;;;;;;2.87;2.67;;;13.40;96.30;;;;;;4978828;28;20200;-76
2022/10/17 04:12:18;;;;;;;6.67;3.37;;;13.30;96.30;;;;;;4995541;28;20217;-75
2022/10/17 04:14:44;;;;;;;6.53;3.50;;;13.20;96.30;;;;;;4986908;28;20210;-75
2022/10/17 04:17:10;;;;;;;5.23;3.50;;;;;;;;;;4999047;28;20185;-74
2022/10/17 04:19:36;;;;;;;3.63;3.10;;;;;;;;;;4992165;28;20174;-75
2022/10/17 05:34:40;;;;;;;5.10;3.33;;;;;;;;;;5876808;23;20533;-82
2022/10/17 05:37:06;;;;;;;4.90;3.13;;;;;;;;;;4999265;28;20774;-82
2022/10/17 05:39:32;;;;;;;6.07;4.00;;;;;;;;;;5001217;28;20631;-83
2022/10/17 05:41:58;;;;;;;3.20;2.90;;;;;;;;;;5004820;28;20176;-84
2022/10/17 05:44:23;;;;;;;5.90;3.43;;;14.00;96.30;;;;;;5034457;28;20188;-83
2022/10/17 05:46:50;;;;;;;5.03;3.10;;;;;;;;;;5028986;28;20430;-83
2022/10/17 05:49:16;;;;;;;3.80;3.10;;;;;;;;;;5047361;28;20196;-83
2022/10/17 05:51:41;;;;;;;4.80;3.50;;;14.60;96.30;;;;;;5023358;28;20510;-83
2022/10/17 05:54:07;;;;;;;7.37;3.43;;;;;;;;;;5040133;28;20474;-84
2022/10/17 05:56:33;;;;;;;4.20;3.10;;;15.20;96.30;;;;;;5019790;28;20543;-84
2022/10/17 05:58:59;;;;;;;7.03;3.90;;;;;;;;;;5037165;28;20172;-82
2022/10/17 06:01:25;;;;;;;4.60;2.93;;;16.10;96.30;;;;;;5029881;28;20410;-83
2022/10/17 06:03:51;;;;;;;4.30;3.60;;;;;;;;;;5037374;28;20187;-83
2022/10/17 06:06:17;;;;;;;4.40;3.20;;;16.80;96.30;;;;;;5054794;28;20712;-83
2022/10/17 06:08:43;;;;;;;3.77;3.10;;;16.90;96.30;;;;;;5054334;28;20426;-82
2022/10/17 06:11:10;;;;;;;3.33;2.50;;;17.00;96.30;;;;;;5047038;28;20421;-83
2022/10/17 06:13:36;;;;;;;5.63;3.03;;;;;;;;;;5026368;28;20597;-83
2022/10/17 06:16:01;;;;;;;8.67;3.60;;;17.30;96.30;;;;;;5048229;28;20434;-82
2022/10/17 06:18:28;;;;;;;4.10;3.00;;;17.70;96.30;;;;;;5037027;28;20195;-82
2022/10/17 06:20:53;;;;;;;4.20;3.17;;;;;;;;;;5054717;28;20230;-83
2022/10/17 06:23:19;;;;;;;3.60;2.80;;;;;;;;;;5057107;28;20464;-82
2022/10/17 06:28:21;;;;;;;9.27;3.30;;;;;;;;;;5588879;23;20240;-81
2022/10/17 06:30:46;;;;;;;3.30;2.70;;;19.00;96.30;;;;;;4997755;28;20416;-82
2022/10/17 06:33:12;;;;;;;4.13;2.60;;;19.10;96.30;;;;;;4998455;28;20304;-82
2022/10/17 06:35:37;;;;;;;3.60;3.30;;;19.40;96.30;;;;;;5016044;28;20203;-82
2022/10/17 06:38:03;;;;;;;4.37;3.10;;;19.60;96.30;;;;;;4997085;28;20538;-82
2022/10/17 06:40:29;;;;;;;3.63;3.00;;;20.00;96.30;;;;;;5015399;28;20188;-82
2022/10/17 06:42:55;;;;;;;4.83;3.80;;;20.30;96.30;;;;;;5014389;28;20776;-82
2022/10/17 06:45:21;;;;;;;6.27;3.93;;;20.80;96.30;;;;;;5015380;28;20220;-82
2022/10/17 06:47:46;;;;;;;5.17;3.67;;;20.20;96.30;;;;;;4996637;28;20470;-82
2022/10/17 06:50:12;;;;;;;4.30;2.60;;;20.30;96.30;;;;;;4997570;28;20637;-81
2022/10/17 06:52:38;;;;;;;4.43;2.63;;;20.20;96.30;;;;;;5015146;28;20180;-81
2022/10/17 06:55:04;;;;;;;4.63;2.53;;;20.20;96.30;;;;;;5014877;28;20205;-81
2022/10/17 06:57:29;;;;;;;3.17;2.83;;;19.90;96.30;;;;;;5014711;28;20431;-81
2022/10/17 06:59:56;;;;;;;3.07;2.33;;;19.60;96.30;;;;;;5017216;28;20238;-80
2022/10/17 07:02:23;;;;;;;3.17;2.50;;;18.90;96.30;;;;;;5017535;28;20176;-80
2022/10/17 07:04:48;;;;;;;3.60;2.57;;;18.10;96.30;;;;;;5018039;28;20459;-80
2022/10/17 07:07:14;;;;;;;2.90;2.60;;;;;;;;;;4999435;28;20427;-80
2022/10/17 07:09:40;;;;;;;3.27;2.60;;;17.60;96.30;;;;;;5000119;28;20199;-80
2022/10/17 07:12:07;;;;;;;3.70;2.50;;;;;;;;;;5000152;28;20176;-81
2022/10/17 07:14:34;;;;;;;3.90;2.90;;;17.00;96.30;;;;;;5017051;28;20201;-81
2022/10/17 07:16:59;;;;;;;4.63;2.57;;;;;;;;;;4999228;28;20417;-81
2022/10/17 07:19:28;;;;;;;4.80;2.60;;;16.90;96.30;;;;;;4999743;28;20779;-81
2022/10/17 07:21:54;;;;;;;6.57;3.33;;;16.90;96.30;;;;;;4999209;28;20176;-81
2022/10/17 07:24:20;;;;;;;3.00;2.63;;;;;;;;;;5015590;28;20466;-81
2022/10/17 07:26:45;;;;;;;3.97;3.00;;;16.90;96.30;;;;;;5013955;28;20177;-81
2022/10/17 07:29:11;;;;;;;4.50;2.73;;;16.90;96.30;;;;;;4996932;28;20206;-81
2022/10/17 07:31:37;;;;;;;6.53;3.37;;;17.00;96.30;;;;;;4996708;28;20184;-80
2022/10/17 07:34:02;;;;;;;5.47;2.43;;;17.00;96.30;;;;;;5013465;28;20217;-81
2022/10/17 07:36:28;;;;;;;6.40;3.30;;;17.00;96.30;;;;;;5013956;28;20195;-81
2022/10/17 07:38:54;;;;;;;3.47;2.87;;;;;;;;;;5013149;28;20177;-81
2022/10/17 07:41:19;;;;;;;5.97;3.03;;;17.20;96.30;;;;;;5014173;28;20255;-81
2022/10/17 07:43:45;;;;;;;5.80;3.40;;;17.30;96.30;;;;;;5014352;28;20274;-80
2022/10/17 07:46:11;;;;;;;5.87;3.40;;;17.40;96.30;;;;;;4997182;28;20204;-80
2022/10/17 07:48:38;;;;;;;3.30;2.80;;;17.50;96.30;;;;;;4995777;28;20180;-80
2022/10/17 07:51:06;;;;;;;4.60;3.40;;;17.50;96.30;;;;;;5013722;28;20173;-80
2022/10/17 07:53:34;;;;;;;3.97;2.83;;;17.50;96.30;;;;;;5013670;28;20934;-80
2022/10/17 07:56:06;;;;;;;6.00;3.43;;;17.70;96.30;;;;;;4995815;28;20610;-80
2022/10/17 07:58:32;;;;;;;5.93;3.07;;;;;;;;;;5013047;28;20430;-80
2022/10/17 08:01:02;;;;;;;14.00;3.17;;;17.90;96.30;;;;;;5013290;28;20404;-80
2022/10/17 08:03:28;;;;;;;2.90;2.30;;;17.90;96.30;;;;;;5012924;28;20423;-80
2022/10/17 08:05:57;;;;;;;20.30;3.60;;;17.90;96.30;;;;;;5012895;28;20436;-80
2022/10/17 08:08:23;;;;;;;4.67;2.77;;;18.00;96.30;;;;;;5012121;28;20173;-80
2022/10/17 08:10:48;;;;;;;4.77;3.03;;;18.00;96.30;;;;;;5012836;28;20424;-81
2022/10/17 08:13:14;;;;;;;3.67;3.10;;;18.00;96.30;;;;;;4995617;28;20203;-80
2022/10/17 08:15:39;;;;;;;3.77;2.60;;;18.20;96.30;;;;;;5013396;28;20401;-80
2022/10/17 08:18:05;;;;;;;4.13;2.97;;;18.30;96.30;;;;;;4995147;28;20185;-80
2022/10/17 08:20:31;;;;;;;3.93;2.77;;;;;;;;;;4995810;28;20196;-80
2022/10/17 08:22:56;;;;;;;3.70;2.50;;;18.40;96.30;;;;;;4995736;28;20216;-80
2022/10/17 08:25:22;;;;;;;7.00;2.60;;;18.40;96.30;;;;;;4995933;28;20247;-80
2022/10/17 08:27:48;;;;;;;3.70;2.70;;;18.50;96.30;;;;;;4995678;28;20565;-80
2022/10/17 08:30:14;;;;;;;6.60;3.33;;;18.50;96.30;;;;;;4997318;28;20280;-80
2022/10/17 08:32:39;;;;;;;6.30;3.30;;;18.70;96.30;;;;;;5016168;28;20591;-80
2022/10/17 08:35:05;;;;;;;7.80;2.77;;;18.70;96.30;;;;;;5016313;28;20225;-80
2022/10/17 08:37:31;;;;;;;4.20;2.70;;;18.80;96.30;;;;;;5016368;28;20287;-80
2022/10/17 08:39:57;;;;;;;3.70;2.30;;;;;;;;;;5016409;28;20915;-80
2022/10/17 08:42:32;;;;;;;3.07;2.63;;;18.80;96.30;;;;;;4998850;28;20177;-80
2022/10/17 08:45:23;;;;;;;3.20;2.67;;;18.90;96.30;;;;;;5016327;28;20574;-80
2022/10/17 08:47:56;;;;;;;4.00;2.70;;;18.90;96.30;;;;;;5019824;28;20411;-80
2022/10/17 08:50:50;;;;;;;3.33;2.77;;;18.90;96.30;;;;;;5002946;28;20419;-80
2022/10/17 08:53:28;;;;;;;4.00;2.80;;;18.90;96.30;;;;;;5019838;28;20506;-80
2022/10/17 08:55:54;;;;;;;4.43;3.07;;;19.00;96.30;;;;;;5019402;28;20981;-80
2022/10/17 08:58:32;;;;;;;5.20;2.73;;;19.20;96.30;;;;;;5019453;28;20408;-80
2022/10/17 09:01:26;;;;;;;5.60;2.97;;;19.60;96.30;;;;;;5019584;28;20181;-80
2022/10/17 09:04:05;;;;;;;5.00;2.57;;;20.30;96.30;;;;;;5001795;28;21134;-80
2022/10/17 09:06:42;;;;;;;7.20;3.40;;;21.30;96.30;;;;;;5002364;28;20509;-80
2022/10/17 09:09:34;;;;;;;3.53;2.27;;;21.70;96.30;;;;;;5002406;28;20419;-80
2022/10/17 09:12:27;;;;;;;3.20;2.10;;;22.30;96.30;;;;;;5019370;28;20508;-80
2022/10/17 09:15:29;;;;;;;6.20;2.27;;;22.90;96.30;;;;;;5019679;28;20942;-80
2022/10/17 09:18:00;;;;;;;5.10;2.40;;;23.30;96.30;;;;;;5018698;28;20411;-80
2022/10/17 09:20:45;;;;;;;4.30;2.60;;;23.40;96.30;;;;;;5001625;28;20430;-81
2022/10/17 09:23:17;;;;;;;7.50;2.63;;;22.80;96.30;;;;;;5001411;28;20442;-81
2022/10/17 09:25:46;;;;;;;4.63;2.30;;;22.90;96.30;;;;;;5019581;28;20840;-81
2022/10/17 09:28:20;;;;;;;3.03;2.17;;;22.80;96.30;;;;;;5018724;28;20427;-80
2022/10/17 09:30:53;;;;;;;2.40;2.20;;;22.60;96.30;;;;;;5002239;28;20424;-80
2022/10/17 09:33:33;;;;;;;2.33;1.83;;;22.70;96.30;;;;;;5002142;28;20459;-80
2022/10/17 09:36:00;;;;;;;7.93;3.00;;;22.50;96.30;;;;;;5001641;28;20538;-80
2022/10/17 09:38:41;;;;;;;5.57;2.33;;;22.60;96.30;;;;;;5019659;28;20426;-81
2022/10/17 09:41:22;;;;;;;2.50;2.30;;;23.50;96.30;;;;;;5002122;28;20424;-81
2022/10/17 09:43:50;;;;;;;2.80;2.53;;;23.40;96.30;;;;;;5001992;28;20486;-81
2022/10/17 09:46:25;;;;;;;4.80;2.50;;;23.70;96.30;;;;;;5018946;28;20440;-81
2022/10/17 09:48:56;;;;;;;2.73;2.20;;;23.90;96.30;;;;;;5000449;28;20980;-81
2022/10/17 09:51:22;;;;;;;2.83;2.23;;;23.40;96.30;;;;;;4981980;28;20413;-81
2022/10/17 09:53:58;;;;;;;2.90;2.60;;;23.60;96.30;;;;;;4999430;28;20471;-81
2022/10/17 09:56:24;;;;;;;3.13;1.90;;;24.00;96.30;;;;;;4980167;28;20429;-79
2022/10/17 09:58:53;;;;;;;5.63;2.97;;;23.80;96.30;;;;;;4996588;28;20419;-81
2022/10/17 10:01:30;;;;;;;3.83;2.40;;;23.90;96.30;;;;;;4998983;28;20193;-79
2022/10/17 10:04:15;;;;;;;4.03;2.57;;;24.10;96.30;;;;;;4999522;28;20392;-79
2022/10/17 10:07:01;;;;;;;4.73;2.47;;;23.90;96.30;;;;;;4998471;28;20504;-79
2022/10/17 10:09:30;;;;;;;6.20;2.27;;;24.30;96.30;;;;;;4998231;28;20861;-78
2022/10/17 10:11:57;;;;;;;4.87;2.90;;;24.20;96.30;;;;;;4998489;28;20424;-79
2022/10/17 10:14:33;;;;;;;3.00;2.47;;;24.00;96.30;;;;;;4999072;28;20468;-79
2022/10/17 10:17:01;;;;;;;3.30;2.60;;;23.80;96.30;;;;;;4980766;28;20417;-79
2022/10/17 10:19:33;;;;;;;3.00;2.70;;;24.20;96.30;;;;;;4998547;28;20413;-79
2022/10/17 10:22:02;;;;;;;3.17;2.87;;;24.60;96.30;;;;;;4999164;28;20420;-80
2022/10/17 10:24:28;;;;;;;2.60;2.40;;;24.50;96.30;;;;;;4998648;28;20947;-79
2022/10/17 10:26:57;;;;;;;10.60;3.33;;;24.40;96.30;;;;;;4998716;28;20499;-79
2022/10/17 10:29:34;;;;;;;2.80;2.50;;;24.30;96.30;;;;;;4982182;28;20499;-79
2022/10/17 10:32:22;;;;;;;3.30;3.00;;;24.60;96.30;;;;;;4999850;28;20768;-79
2022/10/17 10:34:51;;;;;;;6.20;2.80;;;25.00;96.30;;;;;;4999898;28;20464;-79
2022/10/17 10:37:24;;;;;;;3.23;2.93;;;25.20;96.30;;;;;;4999018;28;20798;-79
2022/10/17 10:39:56;;;;;;;3.10;2.80;;;24.90;96.30;;;;;;5000267;28;20412;-80
2022/10/17 10:42:34;;;;;;;4.40;3.20;;;24.90;96.30;;;;;;5000341;28;20401;-79
2022/10/17 10:45:15;;;;;;;2.97;2.70;;;24.90;96.30;;;;;;4999844;28;20429;-79
2022/10/17 10:48:01;;;;;;;4.93;3.33;;;24.60;96.30;;;;;;4998635;28;20404;-80
2022/10/17 10:50:48;;;;;;;3.20;2.90;;;24.40;96.30;;;;;;4999235;28;20400;-79
2022/10/17 10:53:48;;;;;;;3.97;2.83;;;24.60;96.30;;;;;;4998943;28;20456;-79
2022/10/17 10:56:42;;;;;;;3.50;3.20;;;24.70;96.30;;;;;;4999820;28;20787;-79
2022/10/17 10:59:20;;;;;;;3.47;3.17;;;24.90;96.30;;;;;;4988928;28;20428;-79
2022/10/17 11:02:01;;;;;;;3.20;2.87;;;24.50;96.30;;;;;;4999774;28;20396;-79
2022/10/17 11:04:42;;;;;;;4.00;3.07;;;24.60;96.30;;;;;;4999025;28;20428;-79
2022/10/17 11:07:14;;;;;;;5.70;2.70;;;24.80;96.30;;;;;;4998512;28;20933;-81
2022/10/17 11:09:53;;;;;;;4.20;2.83;;;25.10;96.30;;;;;;4999648;28;20488;-79
2022/10/17 11:12:39;;;;;;;3.27;2.63;;;25.40;95.70;;;;;;4999982;28;20456;-80
2022/10/17 11:15:17;;;;;;;2.90;2.60;;;25.60;94.70;;;;;;4999342;28;20500;-79
2022/10/17 11:17:49;;;;;;;2.97;2.57;;;25.50;95.30;;;;;;4998102;28;20396;-80
2022/10/17 11:20:25;;;;;;;4.67;3.30;;;25.60;94.70;;;;;;4999755;28;20393;-79
2022/10/17 11:22:57;;;;;;;3.50;3.00;;;25.60;96.30;;;;;;4999131;28;20778;-79
2022/10/17 11:25:37;;;;;;;5.10;3.10;;;25.40;94.60;;;;;;4998957;28;20424;-79
2022/10/17 11:28:10;;;;;;;3.33;3.00;;;25.50;94.60;;;;;;4997938;28;20428;-80
2022/10/17 11:31:02;;;;;;;4.90;3.23;;;25.50;95.40;;;;;;4998628;28;21108;-79
2022/10/17 11:33:59;;;;;;;5.53;2.90;;;25.30;96.30;;;;;;4997804;28;20440;-79
2022/10/17 11:36:41;;;;;;;4.03;3.00;;;25.50;96.30;;;;;;4998080;28;20511;-80
2022/10/17 11:39:16;;;;;;;4.47;2.80;;;25.50;94.00;;;;;;4979740;28;20919;-80
2022/10/17 11:41:56;;;;;;;6.23;3.30;;;25.40;95.40;;;;;;4997630;28;20760;-79
2022/10/17 11:44:43;;;;;;;3.60;3.30;;;25.20;96.30;;;;;;4997895;28;20413;-79
2022/10/17 11:47:30;;;;;;;3.73;2.77;;;25.40;93.90;;;;;;4997773;28;20408;-80
2022/10/17 11:50:04;;;;;;;4.10;3.27;;;25.30;94.20;;;;;;4997403;28;20403;-79
2022/10/17 11:52:39;;;;;;;5.83;3.73;;;25.20;93.40;;;;;;4997285;28;20419;-79
2022/10/17 11:55:26;;;;;;;4.43;3.20;;;24.90;93.70;;;;;;4996102;28;20455;-80
2022/10/17 11:58:04;;;;;;;5.27;3.43;;;24.90;95.00;;;;;;4995445;28;20416;-79
2022/10/17 12:00:38;;;;;;;3.77;3.40;;;24.70;96.20;;;;;;4994836;28;20411;-79
2022/10/17 12:03:38;;;;;;;5.27;3.80;;;24.80;94.50;;;;;;4995483;28;20899;-79
2022/10/17 12:06:16;;;;;;;4.50;4.10;;;24.70;95.60;;;;;;4995316;28;20425;-79
2022/10/17 12:08:52;;;;;;;5.57;3.73;;;24.80;95.20;;;;;;4994852;28;21093;-79
2022/10/17 12:11:44;;;;;;;6.57;4.07;;;24.90;96.30;;;;;;4977809;28;20409;-79
2022/10/17 12:14:32;;;;;;;7.20;4.00;;;25.30;95.90;;;;;;4977714;28;20456;-79
2022/10/17 12:16:58;;;;;;;4.73;4.20;;;;;;;;;;4994688;28;20412;-79
2022/10/17 12:19:27;;;;;;;6.00;4.13;;;25.50;95.90;;;;;;4996594;28;20414;-79
2022/10/17 12:21:54;;;;;;;4.90;3.50;;;25.40;96.30;;;;;;4999275;28;20432;-79
2022/10/17 12:26:55;;;;;;;8.33;4.07;;;;;;;;;;5574933;23;20675;-79
2022/10/17 12:29:27;;;;;;;3.63;3.23;;;25.40;93.00;;;;;;5045061;28;20423;-80
2022/10/17 12:31:52;;;;;;;3.97;3.43;;;25.30;94.00;;;;;;5028110;28;20639;-80
2022/10/17 12:34:21;;;;;;;8.50;3.80;;;25.40;93.50;;;;;;5044742;28;20447;-80
2022/10/17 12:36:47;;;;;;;6.07;3.83;;;25.30;94.70;;;;;;5044898;28;20218;-79
2022/10/17 12:39:14;;;;;;;4.23;3.70;;;;;;;;;;5045072;28;20434;-79
2022/10/17 12:41:39;;;;;;;6.00;3.23;;;25.40;95.20;;;;;;5044870;28;20160;-79
2022/10/17 12:44:20;;;;;;;10.93;4.27;;;25.20;93.50;;;;;;5027852;28;20494;-80
2022/10/17 12:46:51;;;;;;;15.63;4.00;;;25.30;95.00;;;;;;5044592;28;20163;-80
2022/10/17 12:49:38;;;;;;;4.37;4.00;;;25.50;95.10;;;;;;5027263;28;20407;-80
2022/10/17 12:52:20;;;;;;;6.40;4.40;;;25.50;93.50;;;;;;5027426;28;20414;-80
2022/10/17 12:55:03;;;;;;;7.03;4.40;;;25.30;93.60;;;;;;5045127;28;20571;-80
2022/10/17 12:57:45;;;;;;;6.73;4.60;;;25.00;94.90;;;;;;5044986;28;20391;-80
2022/10/17 13:00:32;;;;;;;4.87;3.70;;;25.00;95.20;;;;;;5045099;28;20406;-80
2022/10/17 13:03:05;;;;;;;4.33;3.93;;;25.30;94.40;;;;;;5045752;28;20395;-80
2022/10/17 13:05:34;;;;;;;4.30;3.90;;;25.40;93.60;;;;;;5027205;28;20449;-79
2022/10/17 13:08:03;;;;;;;5.03;4.27;;;25.30;93.60;;;;;;5044251;28;20537;-80
2022/10/17 13:10:33;;;;;;;4.47;3.93;;;24.90;94.60;;;;;;5044285;28;20977;-80
2022/10/17 13:13:22;;;;;;;7.07;4.37;;;24.70;95.80;;;;;;5044771;28;20464;-79
2022/10/17 13:15:53;;;;;;;6.40;4.67;;;24.80;95.40;;;;;;5026817;28;20442;-79
2022/10/17 13:18:24;;;;;;;9.00;4.50;;;24.60;95.30;;;;;;5044146;28;20403;-79
2022/10/17 13:21:04;;;;;;;8.47;5.50;;;24.10;96.30;;;;;;5044770;28;20388;-80
2022/10/17 13:23:32;;;;;;;6.13;5.13;;;;;;;;;;5044071;28;20414;-79
2022/10/17 13:26:12;;;;;;;7.30;6.20;;;24.60;96.30;;;;;;5044000;28;20426;-79
2022/10/17 13:28:38;;;;;;;11.10;6.70;;;;;;;;;;5043595;28;20409;-79
2022/10/17 13:31:04;;;;;;;14.50;6.13;;;24.80;96.30;;;;;;5043489;28;20410;-79
2022/10/17 13:33:39;;;;;;;9.07;7.50;;;24.40;96.30;;;;;;5044085;28;20541;-79
2022/10/17 13:36:14;;;;;;;8.10;7.20;;;24.30;96.30;;;;;;5042706;28;20192;-79
2022/10/17 13:38:40;;;;;;;17.23;8.27;;;24.20;96.30;;;;;;5042924;28;20397;-79
2022/10/17 13:41:12;;;;;;;11.30;7.37;;;24.30;96.30;;;;;;5044222;28;20403;-80
2022/10/17 13:43:38;;;;;;;12.43;7.73;;;24.10;96.30;;;;;;5043587;28;20198;-80
2022/10/17 13:46:05;;;;;;;9.90;7.07;;;23.90;96.30;;;;;;5026006;28;20446;-79
2022/10/17 13:48:35;;;;;;;9.30;8.07;;;23.50;96.30;;;;;;5043478;28;20437;-79
2022/10/17 13:51:03;;;;;;;8.13;7.33;;;23.30;96.30;;;;;;5043711;28;20627;-79
2022/10/17 13:53:34;;;;;;;12.50;8.90;;;23.20;96.30;;;;;;5042890;28;20459;-80
2022/10/17 13:56:11;;;;;;;14.30;8.23;;;23.10;96.30;;;;;;5042878;28;20437;-79
2022/10/17 13:58:56;;;;;;;11.00;8.30;;;22.70;96.30;;;;;;5042308;28;20403;-79
2022/10/17 14:01:23;;;;;;;12.53;8.20;;;22.20;96.30;;;;;;5042143;28;20411;-79
2022/10/17 14:03:49;;;;;;;16.37;8.97;;;;;;;;;;5040480;28;20410;-79
2022/10/17 14:06:23;;;;;;;14.40;9.97;;;21.50;96.30;;;;;;5038859;28;20485;-79
2022/10/17 14:09:00;;;;;;;13.33;10.20;;;21.40;96.30;;;;;;5038002;28;20400;-78
2022/10/17 14:11:33;;;;;;;14.77;10.50;;;21.30;96.30;;;;;;5021865;28;20850;-78
2022/10/17 14:13:59;;;;;;;22.37;12.40;;;;;;;;;;5039908;28;20451;-79
2022/10/17 14:16:33;;;;;;;14.37;11.10;;;21.10;96.30;;;;;;5016681;28;20954;-77
2022/10/17 14:18:59;;;;;;;17.93;12.53;;;21.00;96.30;;;;;;5032770;28;20427;-77
2022/10/17 14:21:28;;;;;;;15.87;13.10;;;20.90;96.30;;;;;;5033430;28;20442;-77
2022/10/17 14:24:12;;;;;;;15.77;13.20;;;20.80;96.30;;;;;;5034826;28;20502;-78
2022/10/17 14:26:49;;;;;;;37.93;14.97;;;20.60;96.30;;;;;;5034221;28;20434;-76
2022/10/17 14:29:28;;;;;;;17.50;13.53;;;20.20;96.30;;;;;;5033492;28;20406;-76
2022/10/17 14:32:11;;;;;;;22.93;14.47;;;20.00;96.30;;;;;;5033380;28;20750;-77
2022/10/17 14:34:39;;;;;;;19.67;15.10;;;;;;;;;;5014988;28;20474;-77
2022/10/17 14:37:18;;;;;;;21.00;14.87;;;19.80;96.30;;;;;;5032608;28;20811;-76
2022/10/17 14:39:49;;;;;;;19.20;15.60;;;19.70;96.30;;;;;;5033094;28;20410;-76
2022/10/17 14:42:22;;;;;;;19.23;15.60;;;19.60;96.30;;;;;;5030593;28;20427;-77
2022/10/17 14:44:49;;;;;;;92.67;57.93;;;20.00;96.30;;;;;;5025162;28;20446;-77
2022/10/17 14:47:26;;;;;;;1999.90;999.90;;;20.70;96.30;;;;;;5009435;28;20935;-76
2022/10/17 14:50:04;;;;;;;245.77;180.77;;;20.20;96.30;;;;;;5026310;28;20477;-78
2022/10/17 14:52:31;;;;;;;48.93;35.70;;;19.70;96.30;;;;;;5020849;28;20420;-78
2022/10/17 14:54:57;;;;;;;25.80;17.97;;;19.40;96.30;;;;;;5018433;28;20471;-78
2022/10/17 14:57:26;;;;;;;19.20;14.80;;;19.00;96.30;;;;;;5031111;28;20910;-77
2022/10/17 14:59:54;;;;;;;23.47;16.00;;;18.90;96.30;;;;;;5020109;28;20428;-78
2022/10/17 15:02:20;;;;;;;25.90;15.33;;;18.60;96.30;;;;;;5018151;28;20416;-77
2022/10/17 15:04:46;;;;;;;24.63;15.90;;;18.70;96.30;;;;;;5013040;28;20443;-77
2022/10/17 15:07:14;;;;;;;24.13;17.10;;;18.50;96.30;;;;;;5013805;28;20207;-78
2022/10/17 15:09:40;;;;;;;23.03;16.57;;;18.40;96.30;;;;;;5016068;28;20181;-77
2022/10/17 15:12:10;;;;;;;23.30;17.80;;;;;;;;;;5023961;28;20423;-77
2022/10/17 15:14:36;;;;;;;23.03;18.43;;;18.20;96.30;;;;;;5012853;28;20470;-78
2022/10/17 15:17:01;;;;;;;30.87;17.10;;;18.20;96.30;;;;;;5019821;28;20415;-78
2022/10/17 15:19:27;;;;;;;22.50;16.53;;;18.10;96.30;;;;;;5026679;28;20553;-78
2022/10/17 15:21:52;;;;;;;25.47;17.87;;;18.10;96.30;;;;;;5032645;28;20648;-78
2022/10/17 15:24:18;;;;;;;28.37;16.50;;;18.00;96.30;;;;;;5029900;28;20557;-78
2022/10/17 15:26:43;;;;;;;20.20;16.60;;;17.90;96.30;;;;;;5008406;28;20603;-78
2022/10/17 15:29:14;;;;;;;22.40;15.33;;;17.80;96.30;;;;;;5024686;28;20190;-78
2022/10/17 15:31:40;;;;;;;27.70;18.30;;;17.70;96.30;;;;;;5033727;28;20184;-78
2022/10/17 15:34:06;;;;;;;24.80;18.03;;;;;;;;;;5032392;28;20481;-78
2022/10/17 15:36:37;;;;;;;22.40;17.30;;;17.40;96.30;;;;;;5032671;28;20176;-78
2022/10/17 15:39:04;;;;;;;31.23;21.67;;;17.30;96.30;;;;;;5033484;28;20248;-78
2022/10/17 15:41:30;;;;;;;29.10;20.50;;;;;;;;;;5033893;28;20494;-79
2022/10/17 15:43:56;;;;;;;26.00;17.50;;;;;;;;;;5014814;28;20423;-78
2022/10/17 15:46:25;;;;;;;25.53;18.47;;;17.00;96.30;;;;;;5030933;28;20439;-78
2022/10/17 15:48:52;;;;;;;31.80;20.97;;;16.90;96.30;;;;;;5011698;28;20427;-77
2022/10/17 15:51:18;;;;;;;21.70;17.90;;;16.90;96.30;;;;;;5028062;28;20418;-77
2022/10/17 15:53:45;;;;;;;24.03;18.07;;;;;;;;;;4995008;28;21034;-77
2022/10/17 15:56:21;;;;;;;28.90;18.37;;;16.60;96.30;;;;;;5023302;28;20458;-78
2022/10/17 15:58:48;;;;;;;28.33;18.23;;;16.60;96.30;;;;;;5016545;28;20415;-78
2022/10/17 16:01:25;;;;;;;27.50;20.00;;;16.50;96.30;;;;;;5020033;28;20424;-77
2022/10/17 16:03:52;;;;;;;24.63;18.27;;;;;;;;;;5019681;28;20430;-78
2022/10/17 16:06:19;;;;;;;22.27;17.63;;;16.30;96.30;;;;;;5031750;28;20457;-78
2022/10/17 16:08:46;;;;;;;31.97;18.33;;;16.30;96.30;;;;;;5009229;28;20441;-77
2022/10/17 16:11:29;;;;;;;23.83;16.60;;;16.30;96.30;;;;;;5024929;28;20523;-77
2022/10/17 16:13:57;;;;;;;33.00;22.00;;;16.30;96.30;;;;;;5028293;28;20512;-77
2022/10/17 16:16:23;;;;;;;35.13;24.27;;;16.20;96.30;;;;;;5029680;28;20485;-77
2022/10/17 16:18:49;;;;;;;33.70;21.97;;;16.10;96.30;;;;;;5017944;28;20420;-76
2022/10/17 16:21:16;;;;;;;40.20;25.70;;;16.00;96.30;;;;;;5019088;28;20549;-76
2022/10/17 16:23:42;;;;;;;27.47;20.60;;;15.90;96.30;;;;;;5018058;28;20180;-77
2022/10/17 16:26:08;;;;;;;31.93;22.50;;;15.80;96.30;;;;;;5023892;28;20465;-77
2022/10/17 16:28:33;;;;;;;34.13;24.27;;;15.70;96.30;;;;;;5020113;28;20177;-77
2022/10/17 16:30:59;;;;;;;56.23;28.80;;;15.70;96.30;;;;;;5015366;28;20422;-77
2022/10/17 16:33:25;;;;;;;48.40;26.83;;;;;;;;;;5020265;28;20285;-80
2022/10/17 16:35:51;;;;;;;40.03;23.30;;;15.60;96.30;;;;;;5016954;28;20537;-79
2022/10/17 16:38:17;;;;;;;34.03;24.00;;;;;;;;;;5026103;28;20415;-80
2022/10/17 16:40:43;;;;;;;26.77;20.87;;;;;;;;;;5037972;28;20266;-79
2022/10/17 16:43:12;;;;;;;34.47;23.37;;;15.50;96.30;;;;;;5018785;28;20986;-80
2022/10/17 16:45:38;;;;;;;35.70;26.53;;;15.40;96.30;;;;;;5027355;28;20200;-79
2022/10/17 16:48:03;;;;;;;41.50;28.80;;;15.40;96.30;;;;;;5018868;28;20464;-80
2022/10/17 16:50:34;;;;;;;49.87;32.40;;;15.30;96.30;;;;;;5011903;28;20648;-79
2022/10/17 16:52:59;;;;;;;44.60;30.60;;;;;;;;;;5017297;28;20271;-79
2022/10/17 16:55:25;;;;;;;36.63;23.80;;;;;;;;;;5016391;28;21037;-79
2022/10/17 16:57:51;;;;;;;31.93;22.63;;;;;;;;;;5032868;28;20690;-78
2022/10/17 17:00:17;;;;;;;36.33;25.47;;;15.30;96.30;;;;;;5003530;28;20176;-79
2022/10/17 17:02:45;;;;;;;25.40;20.70;;;15.30;96.30;;;;;;5026977;28;20423;-79
2022/10/17 17:05:11;;;;;;;26.37;20.87;;;15.30;96.30;;;;;;4997740;28;20295;-79
2022/10/17 17:07:37;;;;;;;26.57;21.93;;;;;;;;;;5016415;28;20460;-79
2022/10/17 17:10:03;;;;;;;31.20;22.73;;;15.20;96.30;;;;;;5015136;28;20161;-79
2022/10/17 17:12:32;;;;;;;29.03;21.77;;;15.10;96.30;;;;;;4998392;28;20424;-79
2022/10/17 17:14:57;;;;;;;31.57;22.43;;;15.10;96.30;;;;;;5003277;28;20522;-79
2022/10/17 17:17:23;;;;;;;31.60;26.00;;;;;;;;;;5030947;28;20419;-79
2022/10/17 17:19:49;;;;;;;33.40;23.23;;;;;;;;;;5038198;28;20178;-79
2022/10/17 17:22:15;;;;;;;35.00;23.03;;;;;;;;;;5036985;28;20414;-79
2022/10/17 17:24:41;;;;;;;30.67;24.17;;;;;;;;;;5035280;28;20203;-79
2022/10/17 17:27:06;;;;;;;36.93;27.00;;;14.80;96.30;;;;;;5026102;28;20199;-78
2022/10/17 17:29:32;;;;;;;35.57;27.30;;;;;;;;;;5022688;28;20269;-79
2022/10/17 17:31:58;;;;;;;31.03;25.50;;;;;;;;;;5006718;28;20187;-78
2022/10/17 17:34:24;;;;;;;28.10;22.80;;;;;;;;;;5014581;28;20479;-78
2022/10/17 17:36:50;;;;;;;34.00;24.90;;;14.80;96.30;;;;;;5048612;28;20437;-78
2022/10/17 17:39:15;;;;;;;36.57;27.93;;;14.60;96.30;;;;;;5036311;28;20179;-78
2022/10/17 17:41:43;;;;;;;33.10;28.17;;;14.50;96.30;;;;;;5054264;28;20179;-79
2022/10/17 17:44:11;;;;;;;34.13;26.00;;;14.50;96.30;;;;;;5036455;28;20279;-78
2022/10/17 17:46:37;;;;;;;31.93;25.10;;;;;;;;;;5054590;28;20941;-78
2022/10/17 17:49:03;;;;;;;37.23;26.27;;;;;;;;;;5054387;28;20413;-78
2022/10/17 17:51:29;;;;;;;32.10;24.77;;;14.50;96.30;;;;;;5054631;28;20416;-78
2022/10/17 17:53:55;;;;;;;33.60;25.17;;;14.40;96.30;;;;;;5036110;28;20572;-78
2022/10/17 17:56:23;;;;;;;30.33;25.03;;;14.40;96.30;;;;;;5054108;28;20241;-79
2022/10/17 17:58:55;;;;;;;32.10;26.10;;;14.40;96.30;;;;;;5019940;28;20973;-79
2022/10/17 18:01:22;;;;;;;38.20;32.67;;;14.40;96.30;;;;;;5014391;28;20483;-79
2022/10/17 18:03:51;;;;;;;29.57;24.00;;;14.50;96.30;;;;;;5014530;28;20439;-79
2022/10/17 18:06:18;;;;;;;30.27;23.90;;;14.50;96.30;;;;;;4996298;28;20455;-78
2022/10/17 18:08:45;;;;;;;30.47;24.03;;;14.50;96.30;;;;;;4995785;28;20454;-79
2022/10/17 18:11:11;;;;;;;29.77;23.03;;;14.50;96.30;;;;;;5013709;28;20416;-78
2022/10/17 18:13:37;;;;;;;32.00;23.27;;;14.50;96.30;;;;;;4995849;28;20466;-78
2022/10/17 18:16:11;;;;;;;25.87;21.00;;;14.60;96.30;;;;;;4996579;28;20207;-78
2022/10/17 18:18:38;;;;;;;43.47;32.30;;;14.50;96.30;;;;;;5021056;28;20412;-77
2022/10/17 18:21:04;;;;;;;28.90;23.20;;;14.50;96.30;;;;;;5025341;28;20411;-77
2022/10/17 18:23:29;;;;;;;27.07;22.33;;;14.60;96.30;;;;;;5034918;28;20960;-79
2022/10/17 18:26:01;;;;;;;25.70;22.23;;;14.60;96.30;;;;;;5040883;28;20192;-79
2022/10/17 18:28:27;;;;;;;33.53;21.67;;;14.50;96.30;;;;;;5026996;28;20180;-80
2022/10/17 18:30:53;;;;;;;22.73;19.90;;;14.50;96.30;;;;;;5017411;28;20418;-79
2022/10/17 18:33:19;;;;;;;29.53;21.87;;;14.40;96.30;;;;;;5017032;28;20412;-78